Time;durP1;ratioP1;P1;durP2;ratioP2;P2;SDS_P1;SDS_P2;PMS_P1;PMS_P2;Temp;Humidity;BMP_temperature;BMP_pressure;BME280_temperature;BME280_humidity;BME280_pressure;Samples;Min_cycle;Max_cycle;Signal;HPM_P1;HPM_P2
2022/11/16 05:26:51;;;;;;;143.48;36.33;;;;;;;6.02;100.00;99458.94;5567892;32;34605;-87
2022/11/16 05:29:54;;;;;;;148.20;37.13;;;;;;;6.04;100.00;99454.50;5570130;32;34045;-88
2022/11/16 05:32:57;;;;;;;132.10;37.05;;;;;;;6.05;100.00;99448.31;5579761;32;35150;-88
2022/11/16 05:36:00;;;;;;;131.20;35.45;;;;;;;6.09;100.00;99446.38;5563678;32;33900;-88
2022/11/16 05:39:04;;;;;;;109.82;32.88;;;;;;;6.11;100.00;99439.25;5564104;32;33595;-88
2022/11/16 05:42:08;;;;;;;117.28;33.22;;;;;;;6.30;100.00;99436.63;5563885;32;33751;-88
2022/11/16 05:45:11;;;;;;;101.50;32.70;;;;;;;6.20;100.00;99425.69;5566668;32;33777;-88
2022/11/16 05:48:19;;;;;;;97.60;31.42;;;;;;;6.24;100.00;99426.38;5575936;32;34186;-88
2022/11/16 05:51:22;;;;;;;109.53;33.25;;;;;;;6.23;100.00;99422.03;5616428;26;34042;-88
2022/11/16 05:54:26;;;;;;;96.45;31.83;;;;;;;6.26;100.00;99425.38;5564382;32;33600;-88
2022/11/16 05:57:29;;;;;;;90.38;31.65;;;;;;;6.22;100.00;99417.72;5604177;26;34462;-89
2022/11/16 06:00:31;;;;;;;113.07;34.10;;;;;;;6.23;100.00;99411.50;5584480;32;34074;-88
2022/11/16 06:03:35;;;;;;;104.78;32.33;;;;;;;6.24;100.00;99410.59;5581741;31;33492;-88
2022/11/16 06:06:38;;;;;;;102.97;32.67;;;;;;;6.28;100.00;99414.78;5584047;31;33877;-88
2022/11/16 06:09:42;;;;;;;99.30;31.95;;;;;;;6.34;100.00;99411.84;5583856;31;34307;-88
2022/11/16 06:12:46;;;;;;;100.32;33.13;;;;;;;6.42;100.00;99406.19;5583536;32;33660;-89
2022/11/16 06:15:49;;;;;;;88.68;31.33;;;;;;;6.34;100.00;99402.16;5581113;32;34069;-88
2022/11/16 06:18:52;;;;;;;98.05;32.10;;;;;;;6.38;100.00;99405.50;5563882;32;33814;-88
2022/11/16 06:21:56;;;;;;;96.72;32.72;;;;;;;6.36;100.00;99411.75;5563904;32;33793;-89
2022/11/16 06:24:59;;;;;;;88.15;32.67;;;;;;;6.37;100.00;99408.19;5614204;26;34404;-88
2022/11/16 06:28:03;;;;;;;86.28;32.97;;;;;;;6.39;100.00;99409.84;5611112;26;34608;-88
2022/11/16 06:31:10;;;;;;;98.00;32.47;;;;;;;6.44;100.00;99417.53;5580868;32;30894;-88
2022/11/16 06:34:14;;;;;;;93.43;32.50;;;;;;;6.31;100.00;99412.00;5576516;32;33700;-88
2022/11/16 06:37:17;;;;;;;88.72;31.85;;;;;;;6.35;100.00;99424.09;5571581;32;33744;-91
2022/11/16 08:00:49;;;;;;;96.72;34.33;;;;;;;6.70;100.00;99354.78;5555037;31;20087;-90
2022/11/16 08:18:46;;;;;;;102.15;34.97;;;;;;;6.87;100.00;99338.13;5549074;26;33349;-88
2022/11/16 08:21:49;;;;;;;94.55;33.28;;;;;;;6.78;100.00;99336.81;5539309;32;34460;-89
2022/11/16 08:24:54;;;;;;;99.80;34.15;;;;;;;6.90;100.00;99340.63;5535007;32;32996;-88
2022/11/16 08:27:57;;;;;;;99.00;35.30;;;;;;;6.85;100.00;99346.09;5589258;26;35080;-88
2022/11/16 08:31:13;;;;;;;99.28;36.13;;;;;;;6.86;100.00;99342.56;5546516;32;33534;-88
2022/11/16 09:20:10;;;;;;;91.03;34.70;;;;;;;7.18;100.00;99312.78;5310412;30;20128;-89
2022/11/16 09:23:13;;;;;;;94.97;36.33;;;;;;;7.32;100.00;99312.06;5477011;32;34189;-91
2022/11/16 10:08:44;;;;;;;89.47;33.80;;;;;;;7.36;100.00;99266.12;1632342;27;20117;-88
2022/11/16 11:36:25;;;;;;;63.17;28.55;;;;;;;7.92;100.00;99154.78;1443030;27;20153;-89
2022/11/16 13:27:49;;;;;;;53.97;25.40;;;;;;;7.71;100.00;99095.31;5401231;32;32053;-90
2022/11/16 13:31:13;;;;;;;53.80;26.35;;;;;;;7.66;100.00;99087.66;5413452;32;33085;-89
2022/11/16 13:34:25;;;;;;;57.60;26.50;;;;;;;7.66;100.00;99085.03;5400940;32;33959;-89
2022/11/16 13:37:37;;;;;;;53.63;26.30;;;;;;;7.67;100.00;99086.72;5413338;32;35219;-88
2022/11/16 13:40:42;;;;;;;50.72;24.87;;;;;;;7.71;100.00;99084.75;5438251;27;34228;-90
2022/11/16 14:18:19;;;;;;;47.65;23.90;;;;;;;7.47;100.00;99064.13;3629278;27;20117;-88
2022/11/16 14:21:50;;;;;;;49.08;24.23;;;;;;;7.51;100.00;99063.03;5421557;32;33881;-88
2022/11/16 14:43:40;;;;;;;53.20;24.67;;;;;;;7.44;100.00;99054.59;2410495;30;20104;-88
2022/11/16 14:46:43;;;;;;;49.72;24.15;;;;;;;7.40;100.00;99047.81;5436110;32;34086;-87
2022/11/16 14:49:47;;;;;;;50.83;23.67;;;;;;;7.35;100.00;99058.63;5444572;32;33855;-87
2022/11/16 14:52:55;;;;;;;47.05;24.33;;;;;;;7.46;100.00;99054.53;5439711;32;34839;-88
2022/11/16 14:56:07;;;;;;;47.40;24.17;;;;;;;7.41;100.00;99050.34;5426243;32;32750;-87
2022/11/16 14:59:15;;;;;;;51.08;24.17;;;;;;;7.40;100.00;99053.94;5441812;32;33567;-87
2022/11/16 15:02:23;;;;;;;53.78;24.98;;;;;;;7.41;100.00;99047.72;5435598;32;34851;-87
2022/11/16 15:05:28;;;;;;;51.95;24.75;;;;;;;7.31;100.00;99033.37;5434935;32;32603;-87
2022/11/16 15:08:47;;;;;;;48.40;23.90;;;;;;;7.30;100.00;99034.31;5437327;32;33390;-87
2022/11/16 15:15:19;;;;;;;51.37;25.12;;;;;;;7.32;100.00;99027.16;5423865;32;32674;-88
2022/11/16 15:18:22;;;;;;;51.35;23.85;;;;;;;7.34;100.00;99032.34;5437278;32;34545;-89
2022/11/16 15:21:25;;;;;;;52.33;24.17;;;;;;;7.31;100.00;99030.72;5424324;32;33237;-90
2022/11/16 15:24:32;;;;;;;48.50;24.05;;;;;;;7.29;100.00;99029.94;5431923;32;32896;-90
2022/11/16 15:35:04;;;;;;;49.15;23.92;;;;;;;7.32;100.00;99024.50;812165;27;20461;-91
2022/11/16 15:38:17;;;;;;;52.65;24.58;;;;;;;7.32;100.00;99021.88;5422829;32;31346;-90
2022/11/16 15:41:22;;;;;;;44.65;22.60;;;;;;;7.28;100.00;99021.22;5443395;32;35098;-89
2022/11/16 15:44:26;;;;;;;47.05;22.77;;;;;;;7.24;100.00;99024.94;5427714;32;32424;-90
2022/11/16 15:47:29;;;;;;;48.58;22.45;;;;;;;7.32;100.00;99024.50;5422934;32;32683;-89
2022/11/16 15:50:32;;;;;;;46.45;22.23;;;;;;;7.27;100.00;99021.28;5423526;32;33247;-90
2022/11/16 15:53:45;;;;;;;45.28;22.50;;;;;;;7.26;100.00;99014.31;5423964;32;32595;-90
2022/11/16 15:57:10;;;;;;;42.33;21.90;;;;;;;7.21;100.00;99019.88;5423144;27;33686;31
2022/11/16 16:04:14;;;;;;;41.83;22.13;;;;;;;7.23;100.00;99025.91;1660192;27;20115;-89
2022/11/16 16:07:40;;;;;;;43.60;21.62;;;;;;;7.21;100.00;99017.22;5435556;32;34463;-88
2022/11/16 16:10:43;;;;;;;43.15;22.33;;;;;;;7.25;100.00;99015.25;5423147;32;32812;-89
2022/11/16 16:14:02;;;;;;;45.85;22.00;;;;;;;7.24;100.00;99014.41;5436979;32;34295;-89
2022/11/16 16:17:05;;;;;;;46.08;22.73;;;;;;;7.23;100.00;99012.72;5410562;32;34017;-89
2022/11/16 16:20:17;;;;;;;42.70;22.08;;;;;;;7.22;100.00;99004.88;5437530;32;34892;-88
2022/11/16 16:23:24;;;;;;;48.97;22.85;;;;;;;7.30;100.00;99007.94;5446363;32;34051;-88
2022/11/16 16:26:26;;;;;;;49.00;23.85;;;;;;;7.24;100.00;99006.50;5449584;32;33214;-89
2022/11/16 16:29:29;;;;;;;46.28;23.55;;;;;;;7.25;100.00;99004.72;5450184;32;33956;-89
